sensor_id;sensor_type;location;lat;lon;timestamp;temperature;humidity
13707;DHT22;6925;47.816;13.072;2023-12-28T00:02:02;7.30;54.30
13707;DHT22;6925;47.816;13.072;2023-12-28T00:04:29;7.30;54.30
13707;DHT22;6925;47.816;13.072;2023-12-28T00:06:56;7.30;54.20
13707;DHT22;6925;47.816;13.072;2023-12-28T00:09:25;7.30;54.00
13707;DHT22;6925;47.816;13.072;2023-12-28T00:11:52;7.40;53.90
13707;DHT22;6925;47.816;13.072;2023-12-28T00:14:19;7.30;53.90
13707;DHT22;6925;47.816;13.072;2023-12-28T00:16:46;7.30;54.30
13707;DHT22;6925;47.816;13.072;2023-12-28T00:19:13;7.20;54.60
13707;DHT22;6925;47.816;13.072;2023-12-28T00:21:40;7.20;54.40
13707;DHT22;6925;47.816;13.072;2023-12-28T00:24:07;7.20;54.30
13707;DHT22;6925;47.816;13.072;2023-12-28T00:26:36;7.20;54.30
13707;DHT22;6925;47.816;13.072;2023-12-28T00:29:03;7.20;54.50
13707;DHT22;6925;47.816;13.072;2023-12-28T00:31:30;7.10;54.40
13707;DHT22;6925;47.816;13.072;2023-12-28T00:33:57;7.10;54.90
13707;DHT22;6925;47.816;13.072;2023-12-28T00:36:24;7.00;54.60
13707;DHT22;6925;47.816;13.072;2023-12-28T00:38:52;7.00;54.80
13707;DHT22;6925;47.816;13.072;2023-12-28T00:41:19;7.00;55.10
13707;DHT22;6925;47.816;13.072;2023-12-28T00:43:48;7.00;55.10
13707;DHT22;6925;47.816;13.072;2023-12-28T00:46:15;7.00;55.10
13707;DHT22;6925;47.816;13.072;2023-12-28T00:48:42;7.00;54.60
13707;DHT22;6925;47.816;13.072;2023-12-28T00:51:09;7.00;54.70
13707;DHT22;6925;47.816;13.072;2023-12-28T00:53:36;7.00;54.70
13707;DHT22;6925;47.816;13.072;2023-12-28T00:56:04;7.00;54.30
13707;DHT22;6925;47.816;13.072;2023-12-28T00:58:31;7.00;54.30
13707;DHT22;6925;47.816;13.072;2023-12-28T01:00:59;7.00;54.60
13707;DHT22;6925;47.816;13.072;2023-12-28T01:03:26;6.90;55.10
13707;DHT22;6925;47.816;13.072;2023-12-28T01:05:53;6.90;55.20
13707;DHT22;6925;47.816;13.072;2023-12-28T01:08:21;6.90;55.30
13707;DHT22;6925;47.816;13.072;2023-12-28T01:10:48;6.90;55.00
13707;DHT22;6925;47.816;13.072;2023-12-28T01:13:15;6.90;55.40
13707;DHT22;6925;47.816;13.072;2023-12-28T01:15:43;6.90;55.40
13707;DHT22;6925;47.816;13.072;2023-12-28T01:18:11;6.80;55.40
13707;DHT22;6925;47.816;13.072;2023-12-28T01:20:38;6.70;55.40
13707;DHT22;6925;47.816;13.072;2023-12-28T01:23:05;6.70;55.40
13707;DHT22;6925;47.816;13.072;2023-12-28T01:25:32;6.60;54.90
13707;DHT22;6925;47.816;13.072;2023-12-28T01:28:00;6.60;54.80
13707;DHT22;6925;47.816;13.072;2023-12-28T01:30:27;6.60;54.80
13707;DHT22;6925;47.816;13.072;2023-12-28T01:32:54;6.60;55.30
13707;DHT22;6925;47.816;13.072;2023-12-28T01:35:23;6.60;55.10
13707;DHT22;6925;47.816;13.072;2023-12-28T01:37:50;6.60;54.90
13707;DHT22;6925;47.816;13.072;2023-12-28T01:40:17;6.50;54.90
13707;DHT22;6925;47.816;13.072;2023-12-28T01:42:45;6.40;55.50
13707;DHT22;6925;47.816;13.072;2023-12-28T01:45:12;6.40;55.60
13707;DHT22;6925;47.816;13.072;2023-12-28T01:47:40;6.40;55.50
13707;DHT22;6925;47.816;13.072;2023-12-28T01:50:08;6.50;55.60
13707;DHT22;6925;47.816;13.072;2023-12-28T01:52:37;6.50;55.80
13707;DHT22;6925;47.816;13.072;2023-12-28T01:55:05;6.50;55.20
13707;DHT22;6925;47.816;13.072;2023-12-28T01:57:33;6.40;55.40
13707;DHT22;6925;47.816;13.072;2023-12-28T02:00:00;6.40;55.40
13707;DHT22;6925;47.816;13.072;2023-12-28T02:02:30;6.40;55.10
13707;DHT22;6925;47.816;13.072;2023-12-28T02:04:58;6.50;55.40
13707;DHT22;6925;47.816;13.072;2023-12-28T02:07:25;6.60;55.00
13707;DHT22;6925;47.816;13.072;2023-12-28T02:09:54;6.60;55.00
13707;DHT22;6925;47.816;13.072;2023-12-28T02:12:21;6.60;55.00
13707;DHT22;6925;47.816;13.072;2023-12-28T02:14:48;6.60;55.20
13707;DHT22;6925;47.816;13.072;2023-12-28T02:17:19;6.60;54.90
13707;DHT22;6925;47.816;13.072;2023-12-28T02:19:51;6.60;55.10
13707;DHT22;6925;47.816;13.072;2023-12-28T02:22:20;6.50;55.10
13707;DHT22;6925;47.816;13.072;2023-12-28T02:25:03;6.50;55.20
13707;DHT22;6925;47.816;13.072;2023-12-28T02:27:31;6.50;54.80
13707;DHT22;6925;47.816;13.072;2023-12-28T02:29:58;6.60;54.60
13707;DHT22;6925;47.816;13.072;2023-12-28T02:32:33;6.60;54.70
13707;DHT22;6925;47.816;13.072;2023-12-28T02:35:09;6.60;54.70
13707;DHT22;6925;47.816;13.072;2023-12-28T02:37:38;6.60;54.60
13707;DHT22;6925;47.816;13.072;2023-12-28T02:40:09;6.60;54.90
13707;DHT22;6925;47.816;13.072;2023-12-28T02:42:36;6.60;54.50
13707;DHT22;6925;47.816;13.072;2023-12-28T02:45:05;6.60;54.70
13707;DHT22;6925;47.816;13.072;2023-12-28T02:47:32;6.60;54.60
13707;DHT22;6925;47.816;13.072;2023-12-28T02:49:59;6.70;54.50
13707;DHT22;6925;47.816;13.072;2023-12-28T02:52:26;6.60;54.80
13707;DHT22;6925;47.816;13.072;2023-12-28T02:54:53;6.60;54.80
13707;DHT22;6925;47.816;13.072;2023-12-28T02:57:21;6.70;54.60
13707;DHT22;6925;47.816;13.072;2023-12-28T02:59:49;6.60;55.10
13707;DHT22;6925;47.816;13.072;2023-12-28T03:02:16;6.60;55.40
13707;DHT22;6925;47.816;13.072;2023-12-28T03:04:43;6.60;55.10
13707;DHT22;6925;47.816;13.072;2023-12-28T03:07:10;6.60;54.90
13707;DHT22;6925;47.816;13.072;2023-12-28T03:09:37;6.50;55.20
13707;DHT22;6925;47.816;13.072;2023-12-28T03:12:06;6.50;55.30
13707;DHT22;6925;47.816;13.072;2023-12-28T03:14:34;6.50;55.40
13707;DHT22;6925;47.816;13.072;2023-12-28T03:17:01;6.40;55.70
13707;DHT22;6925;47.816;13.072;2023-12-28T03:19:29;6.40;55.80
13707;DHT22;6925;47.816;13.072;2023-12-28T03:21:56;6.50;55.40
13707;DHT22;6925;47.816;13.072;2023-12-28T03:24:23;6.50;55.20
13707;DHT22;6925;47.816;13.072;2023-12-28T03:26:50;6.40;55.60
13707;DHT22;6925;47.816;13.072;2023-12-28T03:29:17;6.40;54.90
13707;DHT22;6925;47.816;13.072;2023-12-28T03:31:46;6.30;55.30
13707;DHT22;6925;47.816;13.072;2023-12-28T03:34:13;6.40;55.80
13707;DHT22;6925;47.816;13.072;2023-12-28T03:36:40;6.30;56.00
13707;DHT22;6925;47.816;13.072;2023-12-28T03:39:08;6.30;55.40
13707;DHT22;6925;47.816;13.072;2023-12-28T03:41:35;6.30;55.90
13707;DHT22;6925;47.816;13.072;2023-12-28T03:44:02;6.30;55.60
13707;DHT22;6925;47.816;13.072;2023-12-28T03:46:29;6.20;55.40
13707;DHT22;6925;47.816;13.072;2023-12-28T03:48:58;6.30;55.70
13707;DHT22;6925;47.816;13.072;2023-12-28T03:51:25;6.40;55.20
13707;DHT22;6925;47.816;13.072;2023-12-28T03:53:52;6.40;55.30
13707;DHT22;6925;47.816;13.072;2023-12-28T03:56:23;6.40;55.10
13707;DHT22;6925;47.816;13.072;2023-12-28T03:58:50;6.40;55.20
13707;DHT22;6925;47.816;13.072;2023-12-28T04:01:18;6.40;55.30
13707;DHT22;6925;47.816;13.072;2023-12-28T04:03:45;6.40;55.10
13707;DHT22;6925;47.816;13.072;2023-12-28T04:06:14;6.40;55.20
13707;DHT22;6925;47.816;13.072;2023-12-28T04:08:42;6.40;55.30
13707;DHT22;6925;47.816;13.072;2023-12-28T04:11:09;6.40;55.10
13707;DHT22;6925;47.816;13.072;2023-12-28T04:13:36;6.30;55.90
13707;DHT22;6925;47.816;13.072;2023-12-28T04:16:05;6.30;55.90
13707;DHT22;6925;47.816;13.072;2023-12-28T04:18:32;6.30;55.90
13707;DHT22;6925;47.816;13.072;2023-12-28T04:20:59;6.30;56.10
13707;DHT22;6925;47.816;13.072;2023-12-28T04:23:28;6.30;56.30
13707;DHT22;6925;47.816;13.072;2023-12-28T04:25:55;6.20;55.60
13707;DHT22;6925;47.816;13.072;2023-12-28T04:28:22;6.20;55.80
13707;DHT22;6925;47.816;13.072;2023-12-28T04:30:49;6.20;55.50
13707;DHT22;6925;47.816;13.072;2023-12-28T04:33:17;6.20;55.50
13707;DHT22;6925;47.816;13.072;2023-12-28T04:35:45;6.20;55.90
13707;DHT22;6925;47.816;13.072;2023-12-28T04:38:13;6.20;55.90
13707;DHT22;6925;47.816;13.072;2023-12-28T04:40:41;6.10;56.30
13707;DHT22;6925;47.816;13.072;2023-12-28T04:43:09;6.10;56.40
13707;DHT22;6925;47.816;13.072;2023-12-28T04:45:36;6.00;56.20
13707;DHT22;6925;47.816;13.072;2023-12-28T04:48:04;6.00;56.60
13707;DHT22;6925;47.816;13.072;2023-12-28T04:50:31;5.90;56.60
13707;DHT22;6925;47.816;13.072;2023-12-28T04:52:58;5.90;56.40
13707;DHT22;6925;47.816;13.072;2023-12-28T04:55:25;5.80;56.90
13707;DHT22;6925;47.816;13.072;2023-12-28T04:57:54;5.80;57.20
13707;DHT22;6925;47.816;13.072;2023-12-28T05:00:21;5.80;57.20
13707;DHT22;6925;47.816;13.072;2023-12-28T05:02:48;5.90;56.60
13707;DHT22;6925;47.816;13.072;2023-12-28T05:05:15;5.90;56.90
13707;DHT22;6925;47.816;13.072;2023-12-28T05:07:43;5.90;57.10
13707;DHT22;6925;47.816;13.072;2023-12-28T05:10:10;5.80;56.70
13707;DHT22;6925;47.816;13.072;2023-12-28T05:12:37;5.80;57.00
13707;DHT22;6925;47.816;13.072;2023-12-28T05:15:06;5.80;57.10
13707;DHT22;6925;47.816;13.072;2023-12-28T05:17:33;5.90;57.00
13707;DHT22;6925;47.816;13.072;2023-12-28T05:20:01;5.90;56.80
13707;DHT22;6925;47.816;13.072;2023-12-28T05:22:28;5.90;56.70
13707;DHT22;6925;47.816;13.072;2023-12-28T05:24:55;5.90;57.10
13707;DHT22;6925;47.816;13.072;2023-12-28T05:27:22;5.80;57.10
13707;DHT22;6925;47.816;13.072;2023-12-28T05:29:49;5.80;57.30
13707;DHT22;6925;47.816;13.072;2023-12-28T05:32:18;5.80;57.60
13707;DHT22;6925;47.816;13.072;2023-12-28T05:34:45;5.70;57.70
13707;DHT22;6925;47.816;13.072;2023-12-28T05:37:13;5.70;57.00
13707;DHT22;6925;47.816;13.072;2023-12-28T05:39:40;5.70;57.50
13707;DHT22;6925;47.816;13.072;2023-12-28T05:42:07;5.70;57.40
13707;DHT22;6925;47.816;13.072;2023-12-28T05:44:34;5.80;58.00
13707;DHT22;6925;47.816;13.072;2023-12-28T05:47:02;5.70;57.30
13707;DHT22;6925;47.816;13.072;2023-12-28T05:49:31;5.70;57.40
13707;DHT22;6925;47.816;13.072;2023-12-28T05:51:58;5.60;57.50
13707;DHT22;6925;47.816;13.072;2023-12-28T05:54:25;5.50;57.80
13707;DHT22;6925;47.816;13.072;2023-12-28T05:56:52;5.30;58.20
13707;DHT22;6925;47.816;13.072;2023-12-28T05:59:19;5.30;58.50
13707;DHT22;6925;47.816;13.072;2023-12-28T06:01:48;5.30;58.90
13707;DHT22;6925;47.816;13.072;2023-12-28T06:04:15;5.30;58.40
13707;DHT22;6925;47.816;13.072;2023-12-28T06:06:44;5.30;58.50
13707;DHT22;6925;47.816;13.072;2023-12-28T06:09:11;5.40;58.50
13707;DHT22;6925;47.816;13.072;2023-12-28T06:11:39;5.30;58.20
13707;DHT22;6925;47.816;13.072;2023-12-28T06:14:06;5.30;58.40
13707;DHT22;6925;47.816;13.072;2023-12-28T06:16:34;5.20;58.50
13707;DHT22;6925;47.816;13.072;2023-12-28T06:19:01;5.10;59.00
13707;DHT22;6925;47.816;13.072;2023-12-28T06:21:29;5.20;58.90
13707;DHT22;6925;47.816;13.072;2023-12-28T06:23:58;5.30;58.20
13707;DHT22;6925;47.816;13.072;2023-12-28T06:26:25;5.30;57.90
13707;DHT22;6925;47.816;13.072;2023-12-28T06:28:53;5.40;58.00
13707;DHT22;6925;47.816;13.072;2023-12-28T06:31:20;5.40;57.70
13707;DHT22;6925;47.816;13.072;2023-12-28T06:33:48;5.50;57.90
13707;DHT22;6925;47.816;13.072;2023-12-28T06:36:17;5.50;57.70
13707;DHT22;6925;47.816;13.072;2023-12-28T06:38:45;5.50;57.70
13707;DHT22;6925;47.816;13.072;2023-12-28T06:41:14;5.60;57.50
13707;DHT22;6925;47.816;13.072;2023-12-28T06:43:41;5.60;57.80
13707;DHT22;6925;47.816;13.072;2023-12-28T06:46:09;5.70;57.70
13707;DHT22;6925;47.816;13.072;2023-12-28T06:48:36;5.70;57.30
13707;DHT22;6925;47.816;13.072;2023-12-28T06:51:06;5.60;57.70
13707;DHT22;6925;47.816;13.072;2023-12-28T06:53:33;5.50;58.00
13707;DHT22;6925;47.816;13.072;2023-12-28T06:56:00;5.40;57.80
13707;DHT22;6925;47.816;13.072;2023-12-28T06:58:30;5.50;58.40
13707;DHT22;6925;47.816;13.072;2023-12-28T07:00:57;5.50;58.30
13707;DHT22;6925;47.816;13.072;2023-12-28T07:03:24;5.50;57.90
13707;DHT22;6925;47.816;13.072;2023-12-28T07:05:56;5.40;57.80
13707;DHT22;6925;47.816;13.072;2023-12-28T07:08:23;5.40;57.80
13707;DHT22;6925;47.816;13.072;2023-12-28T07:10:50;5.40;57.90
13707;DHT22;6925;47.816;13.072;2023-12-28T07:13:17;5.40;58.20
13707;DHT22;6925;47.816;13.072;2023-12-28T07:15:46;5.50;58.20
13707;DHT22;6925;47.816;13.072;2023-12-28T07:18:13;5.50;58.00
13707;DHT22;6925;47.816;13.072;2023-12-28T07:20:41;5.50;58.40
13707;DHT22;6925;47.816;13.072;2023-12-28T07:23:08;5.50;58.20
13707;DHT22;6925;47.816;13.072;2023-12-28T07:25:35;5.60;58.80
13707;DHT22;6925;47.816;13.072;2023-12-28T07:28:03;5.60;59.00
13707;DHT22;6925;47.816;13.072;2023-12-28T07:30:30;5.60;58.60
13707;DHT22;6925;47.816;13.072;2023-12-28T07:32:59;5.70;58.40
13707;DHT22;6925;47.816;13.072;2023-12-28T07:35:26;5.60;58.20
13707;DHT22;6925;47.816;13.072;2023-12-28T07:37:53;5.60;58.40
13707;DHT22;6925;47.816;13.072;2023-12-28T07:40:21;5.60;58.80
13707;DHT22;6925;47.816;13.072;2023-12-28T07:42:48;5.60;58.70
13707;DHT22;6925;47.816;13.072;2023-12-28T07:45:16;5.60;58.90
13707;DHT22;6925;47.816;13.072;2023-12-28T07:47:49;5.50;59.10
13707;DHT22;6925;47.816;13.072;2023-12-28T07:50:18;5.60;58.80
13707;DHT22;6925;47.816;13.072;2023-12-28T07:52:47;5.50;59.20
13707;DHT22;6925;47.816;13.072;2023-12-28T07:55:15;5.40;58.50
13707;DHT22;6925;47.816;13.072;2023-12-28T07:57:42;5.50;58.40
13707;DHT22;6925;47.816;13.072;2023-12-28T08:00:10;5.50;58.50
13707;DHT22;6925;47.816;13.072;2023-12-28T08:02:37;5.60;58.70
13707;DHT22;6925;47.816;13.072;2023-12-28T08:05:05;5.70;59.00
13707;DHT22;6925;47.816;13.072;2023-12-28T08:07:34;5.70;58.10
13707;DHT22;6925;47.816;13.072;2023-12-28T08:10:01;5.70;57.80
13707;DHT22;6925;47.816;13.072;2023-12-28T08:12:29;5.70;58.30
13707;DHT22;6925;47.816;13.072;2023-12-28T08:14:58;5.70;58.20
13707;DHT22;6925;47.816;13.072;2023-12-28T08:17:26;5.70;58.20
13707;DHT22;6925;47.816;13.072;2023-12-28T08:19:53;5.70;58.60
13707;DHT22;6925;47.816;13.072;2023-12-28T08:22:21;5.80;58.60
13707;DHT22;6925;47.816;13.072;2023-12-28T08:24:50;5.70;58.80
13707;DHT22;6925;47.816;13.072;2023-12-28T08:27:17;5.60;59.10
13707;DHT22;6925;47.816;13.072;2023-12-28T08:29:44;5.70;58.90
13707;DHT22;6925;47.816;13.072;2023-12-28T08:32:12;5.70;59.10
13707;DHT22;6925;47.816;13.072;2023-12-28T08:34:39;5.70;59.50
13707;DHT22;6925;47.816;13.072;2023-12-28T08:37:06;5.70;59.50
13707;DHT22;6925;47.816;13.072;2023-12-28T08:39:33;5.70;60.00
13707;DHT22;6925;47.816;13.072;2023-12-28T08:42:03;5.70;59.70
13707;DHT22;6925;47.816;13.072;2023-12-28T08:44:30;5.70;59.20
13707;DHT22;6925;47.816;13.072;2023-12-28T08:46:58;5.80;59.20
13707;DHT22;6925;47.816;13.072;2023-12-28T08:49:25;5.90;58.40
13707;DHT22;6925;47.816;13.072;2023-12-28T08:51:53;6.00;58.50
13707;DHT22;6925;47.816;13.072;2023-12-28T08:54:19;6.00;59.10
13707;DHT22;6925;47.816;13.072;2023-12-28T08:56:47;6.00;59.60
13707;DHT22;6925;47.816;13.072;2023-12-28T08:59:16;6.00;60.50
13707;DHT22;6925;47.816;13.072;2023-12-28T09:01:43;6.10;61.40
13707;DHT22;6925;47.816;13.072;2023-12-28T09:04:12;6.30;62.50
13707;DHT22;6925;47.816;13.072;2023-12-28T09:06:39;6.70;63.40
13707;DHT22;6925;47.816;13.072;2023-12-28T09:09:07;7.00;63.50
13707;DHT22;6925;47.816;13.072;2023-12-28T09:11:34;7.30;63.20
13707;DHT22;6925;47.816;13.072;2023-12-28T09:14:02;7.60;60.60
13707;DHT22;6925;47.816;13.072;2023-12-28T09:16:30;7.90;61.00
13707;DHT22;6925;47.816;13.072;2023-12-28T09:18:57;8.30;62.80
13707;DHT22;6925;47.816;13.072;2023-12-28T09:21:24;8.70;62.10
13707;DHT22;6925;47.816;13.072;2023-12-28T09:23:52;9.10;62.00
13707;DHT22;6925;47.816;13.072;2023-12-28T09:26:19;9.50;60.70
13707;DHT22;6925;47.816;13.072;2023-12-28T09:28:46;9.80;60.00
13707;DHT22;6925;47.816;13.072;2023-12-28T09:31:13;10.00;60.30
13707;DHT22;6925;47.816;13.072;2023-12-28T09:33:43;10.40;60.00
13707;DHT22;6925;47.816;13.072;2023-12-28T09:36:10;10.70;59.10
13707;DHT22;6925;47.816;13.072;2023-12-28T09:38:39;10.90;59.30
13707;DHT22;6925;47.816;13.072;2023-12-28T09:41:13;11.30;58.60
13707;DHT22;6925;47.816;13.072;2023-12-28T09:43:46;11.60;58.90
13707;DHT22;6925;47.816;13.072;2023-12-28T09:46:16;12.10;58.80
13707;DHT22;6925;47.816;13.072;2023-12-28T09:48:44;12.50;59.00
13707;DHT22;6925;47.816;13.072;2023-12-28T09:51:12;12.90;59.40
13707;DHT22;6925;47.816;13.072;2023-12-28T09:53:39;13.30;58.20
13707;DHT22;6925;47.816;13.072;2023-12-28T09:56:07;13.50;56.60
13707;DHT22;6925;47.816;13.072;2023-12-28T09:58:36;13.60;53.10
13707;DHT22;6925;47.816;13.072;2023-12-28T10:01:03;13.40;50.10
13707;DHT22;6925;47.816;13.072;2023-12-28T10:03:32;13.10;50.60
13707;DHT22;6925;47.816;13.072;2023-12-28T10:06:01;13.10;50.20
13707;DHT22;6925;47.816;13.072;2023-12-28T10:08:28;13.30;52.70
13707;DHT22;6925;47.816;13.072;2023-12-28T10:10:56;13.60;52.60
13707;DHT22;6925;47.816;13.072;2023-12-28T10:13:25;13.80;51.90
13707;DHT22;6925;47.816;13.072;2023-12-28T10:15:52;14.10;52.00
13707;DHT22;6925;47.816;13.072;2023-12-28T10:18:19;14.40;52.80
13707;DHT22;6925;47.816;13.072;2023-12-28T10:20:49;14.80;52.30
13707;DHT22;6925;47.816;13.072;2023-12-28T10:23:18;15.00;51.20
13707;DHT22;6925;47.816;13.072;2023-12-28T10:25:46;15.20;51.30
13707;DHT22;6925;47.816;13.072;2023-12-28T10:28:16;15.60;52.80
13707;DHT22;6925;47.816;13.072;2023-12-28T10:30:44;15.80;46.30
13707;DHT22;6925;47.816;13.072;2023-12-28T10:33:13;15.40;46.20
13707;DHT22;6925;47.816;13.072;2023-12-28T10:35:42;15.20;44.70
13707;DHT22;6925;47.816;13.072;2023-12-28T10:38:10;15.00;44.00
13707;DHT22;6925;47.816;13.072;2023-12-28T10:40:42;14.90;46.30
13707;DHT22;6925;47.816;13.072;2023-12-28T10:43:14;15.30;47.10
13707;DHT22;6925;47.816;13.072;2023-12-28T10:45:50;15.80;47.90
13707;DHT22;6925;47.816;13.072;2023-12-28T10:48:21;16.60;49.80
13707;DHT22;6925;47.816;13.072;2023-12-28T10:50:50;17.20;49.30
13707;DHT22;6925;47.816;13.072;2023-12-28T10:53:32;17.80;47.80
13707;DHT22;6925;47.816;13.072;2023-12-28T10:56:13;17.80;43.20
13707;DHT22;6925;47.816;13.072;2023-12-28T10:58:48;17.50;43.80
13707;DHT22;6925;47.816;13.072;2023-12-28T11:01:21;17.30;42.70
13707;DHT22;6925;47.816;13.072;2023-12-28T11:03:52;17.20;43.10
13707;DHT22;6925;47.816;13.072;2023-12-28T11:06:26;17.50;45.20
13707;DHT22;6925;47.816;13.072;2023-12-28T11:08:55;17.70;44.90
13707;DHT22;6925;47.816;13.072;2023-12-28T11:11:25;17.70;42.70
13707;DHT22;6925;47.816;13.072;2023-12-28T11:13:54;17.50;40.50
13707;DHT22;6925;47.816;13.072;2023-12-28T11:16:22;17.30;41.70
13707;DHT22;6925;47.816;13.072;2023-12-28T11:18:51;17.40;41.90
13707;DHT22;6925;47.816;13.072;2023-12-28T11:21:20;17.50;39.90
13707;DHT22;6925;47.816;13.072;2023-12-28T11:23:48;17.40;39.80
13707;DHT22;6925;47.816;13.072;2023-12-28T11:26:16;17.30;39.10
13707;DHT22;6925;47.816;13.072;2023-12-28T11:28:45;17.10;40.40
13707;DHT22;6925;47.816;13.072;2023-12-28T11:31:14;17.60;44.00
13707;DHT22;6925;47.816;13.072;2023-12-28T11:33:45;18.00;40.70
13707;DHT22;6925;47.816;13.072;2023-12-28T11:36:21;17.90;40.00
13707;DHT22;6925;47.816;13.072;2023-12-28T11:38:51;17.60;38.70
13707;DHT22;6925;47.816;13.072;2023-12-28T11:41:20;17.40;37.20
13707;DHT22;6925;47.816;13.072;2023-12-28T11:43:53;17.10;38.40
13707;DHT22;6925;47.816;13.072;2023-12-28T11:46:21;16.90;38.00
13707;DHT22;6925;47.816;13.072;2023-12-28T11:48:48;16.60;39.40
13707;DHT22;6925;47.816;13.072;2023-12-28T11:51:15;16.70;40.60
13707;DHT22;6925;47.816;13.072;2023-12-28T11:53:43;16.80;40.10
13707;DHT22;6925;47.816;13.072;2023-12-28T11:56:15;16.80;40.20
13707;DHT22;6925;47.816;13.072;2023-12-28T11:58:43;16.60;38.60
13707;DHT22;6925;47.816;13.072;2023-12-28T12:01:14;16.40;39.00
13707;DHT22;6925;47.816;13.072;2023-12-28T12:03:41;16.20;38.60
13707;DHT22;6925;47.816;13.072;2023-12-28T12:06:08;16.00;39.30
13707;DHT22;6925;47.816;13.072;2023-12-28T12:08:35;16.10;40.10
13707;DHT22;6925;47.816;13.072;2023-12-28T12:11:02;16.00;38.90
13707;DHT22;6925;47.816;13.072;2023-12-28T12:13:31;16.00;39.80
13707;DHT22;6925;47.816;13.072;2023-12-28T12:15:58;16.00;39.90
13707;DHT22;6925;47.816;13.072;2023-12-28T12:18:32;16.00;39.20
13707;DHT22;6925;47.816;13.072;2023-12-28T12:21:00;16.00;39.90
13707;DHT22;6925;47.816;13.072;2023-12-28T12:23:28;15.90;39.90
13707;DHT22;6925;47.816;13.072;2023-12-28T12:25:55;15.70;38.30
13707;DHT22;6925;47.816;13.072;2023-12-28T12:28:22;15.50;39.90
13707;DHT22;6925;47.816;13.072;2023-12-28T12:30:50;15.60;39.80
13707;DHT22;6925;47.816;13.072;2023-12-28T12:33:18;15.50;39.90
13707;DHT22;6925;47.816;13.072;2023-12-28T12:35:46;15.50;41.10
13707;DHT22;6925;47.816;13.072;2023-12-28T12:38:13;15.70;42.30
13707;DHT22;6925;47.816;13.072;2023-12-28T12:40:41;15.80;41.50
13707;DHT22;6925;47.816;13.072;2023-12-28T12:43:08;15.90;42.00
13707;DHT22;6925;47.816;13.072;2023-12-28T12:45:35;16.00;40.80
13707;DHT22;6925;47.816;13.072;2023-12-28T12:48:03;16.10;42.10
13707;DHT22;6925;47.816;13.072;2023-12-28T12:50:31;16.20;39.80
13707;DHT22;6925;47.816;13.072;2023-12-28T12:53:01;16.10;40.30
13707;DHT22;6925;47.816;13.072;2023-12-28T12:55:29;16.20;40.70
13707;DHT22;6925;47.816;13.072;2023-12-28T12:57:57;16.20;40.30
13707;DHT22;6925;47.816;13.072;2023-12-28T13:00:24;16.30;40.40
13707;DHT22;6925;47.816;13.072;2023-12-28T13:02:51;16.30;40.20
13707;DHT22;6925;47.816;13.072;2023-12-28T13:05:21;16.30;40.00
13707;DHT22;6925;47.816;13.072;2023-12-28T13:07:48;16.30;41.20
13707;DHT22;6925;47.816;13.072;2023-12-28T13:10:16;16.50;41.60
13707;DHT22;6925;47.816;13.072;2023-12-28T13:12:43;16.80;41.80
13707;DHT22;6925;47.816;13.072;2023-12-28T13:15:10;17.00;42.30
13707;DHT22;6925;47.816;13.072;2023-12-28T13:17:37;17.20;40.70
13707;DHT22;6925;47.816;13.072;2023-12-28T13:20:05;17.10;40.30
13707;DHT22;6925;47.816;13.072;2023-12-28T13:22:34;16.90;39.70
13707;DHT22;6925;47.816;13.072;2023-12-28T13:25:01;16.60;39.50
13707;DHT22;6925;47.816;13.072;2023-12-28T13:27:30;16.30;39.90
13707;DHT22;6925;47.816;13.072;2023-12-28T13:29:57;16.10;40.30
13707;DHT22;6925;47.816;13.072;2023-12-28T13:32:25;15.90;40.70
13707;DHT22;6925;47.816;13.072;2023-12-28T13:34:52;15.70;40.90
13707;DHT22;6925;47.816;13.072;2023-12-28T13:37:19;15.70;42.10
13707;DHT22;6925;47.816;13.072;2023-12-28T13:39:46;15.70;42.20
13707;DHT22;6925;47.816;13.072;2023-12-28T13:42:13;15.70;41.40
13707;DHT22;6925;47.816;13.072;2023-12-28T13:44:42;15.60;41.20
13707;DHT22;6925;47.816;13.072;2023-12-28T13:47:09;15.40;40.40
13707;DHT22;6925;47.816;13.072;2023-12-28T13:49:36;15.10;40.00
13707;DHT22;6925;47.816;13.072;2023-12-28T13:52:03;14.90;40.30
13707;DHT22;6925;47.816;13.072;2023-12-28T13:54:31;14.80;40.50
13707;DHT22;6925;47.816;13.072;2023-12-28T13:56:57;14.60;40.90
13707;DHT22;6925;47.816;13.072;2023-12-28T13:59:26;14.50;41.40
13707;DHT22;6925;47.816;13.072;2023-12-28T14:01:54;14.40;41.20
13707;DHT22;6925;47.816;13.072;2023-12-28T14:04:23;14.30;41.40
13707;DHT22;6925;47.816;13.072;2023-12-28T14:06:50;14.20;41.50
13707;DHT22;6925;47.816;13.072;2023-12-28T14:09:17;14.10;41.80
13707;DHT22;6925;47.816;13.072;2023-12-28T14:11:47;14.00;42.50
13707;DHT22;6925;47.816;13.072;2023-12-28T14:14:14;14.00;42.50
13707;DHT22;6925;47.816;13.072;2023-12-28T14:16:41;14.00;43.00
13707;DHT22;6925;47.816;13.072;2023-12-28T14:19:10;14.00;43.30
13707;DHT22;6925;47.816;13.072;2023-12-28T14:21:38;14.00;44.30
13707;DHT22;6925;47.816;13.072;2023-12-28T14:24:06;13.90;45.90
13707;DHT22;6925;47.816;13.072;2023-12-28T14:26:34;13.90;44.80
13707;DHT22;6925;47.816;13.072;2023-12-28T14:29:02;13.90;45.70
13707;DHT22;6925;47.816;13.072;2023-12-28T14:31:31;13.80;46.00
13707;DHT22;6925;47.816;13.072;2023-12-28T14:33:59;13.70;46.70
13707;DHT22;6925;47.816;13.072;2023-12-28T14:36:30;13.50;47.10
13707;DHT22;6925;47.816;13.072;2023-12-28T14:38:58;13.40;46.00
13707;DHT22;6925;47.816;13.072;2023-12-28T14:41:26;13.20;44.80
13707;DHT22;6925;47.816;13.072;2023-12-28T14:43:54;13.10;44.80
13707;DHT22;6925;47.816;13.072;2023-12-28T14:46:21;13.00;45.10
13707;DHT22;6925;47.816;13.072;2023-12-28T14:48:48;12.90;45.90
13707;DHT22;6925;47.816;13.072;2023-12-28T14:51:15;12.80;44.80
13707;DHT22;6925;47.816;13.072;2023-12-28T14:53:44;12.60;45.00
13707;DHT22;6925;47.816;13.072;2023-12-28T14:56:12;12.40;45.30
13707;DHT22;6925;47.816;13.072;2023-12-28T14:58:39;12.40;45.60
13707;DHT22;6925;47.816;13.072;2023-12-28T15:01:06;12.40;46.70
13707;DHT22;6925;47.816;13.072;2023-12-28T15:03:33;12.30;46.30
13707;DHT22;6925;47.816;13.072;2023-12-28T15:06:00;12.30;46.20
13707;DHT22;6925;47.816;13.072;2023-12-28T15:08:27;12.40;47.80
13707;DHT22;6925;47.816;13.072;2023-12-28T15:10:56;12.30;48.10
13707;DHT22;6925;47.816;13.072;2023-12-28T15:13:23;12.40;49.00
13707;DHT22;6925;47.816;13.072;2023-12-28T15:15:51;12.30;49.10
13707;DHT22;6925;47.816;13.072;2023-12-28T15:18:19;12.20;49.40
13707;DHT22;6925;47.816;13.072;2023-12-28T15:20:47;12.10;50.30
13707;DHT22;6925;47.816;13.072;2023-12-28T15:23:16;12.00;48.50
13707;DHT22;6925;47.816;13.072;2023-12-28T15:25:45;11.90;48.40
13707;DHT22;6925;47.816;13.072;2023-12-28T15:28:13;11.80;49.60
13707;DHT22;6925;47.816;13.072;2023-12-28T15:30:41;11.90;50.90
13707;DHT22;6925;47.816;13.072;2023-12-28T15:33:08;11.80;50.50
13707;DHT22;6925;47.816;13.072;2023-12-28T15:35:37;11.70;50.50
13707;DHT22;6925;47.816;13.072;2023-12-28T15:38:05;11.60;50.20
13707;DHT22;6925;47.816;13.072;2023-12-28T15:40:32;11.50;48.60
13707;DHT22;6925;47.816;13.072;2023-12-28T15:42:59;11.40;48.70
13707;DHT22;6925;47.816;13.072;2023-12-28T15:45:28;11.40;48.90